createdAt,value
2023-02-15T00:02:29.292Z,13.77
2023-02-15T00:07:32.103Z,10.87
2023-02-15T00:12:35.130Z,12.93
2023-02-15T00:17:39.303Z,10.93
2023-02-15T00:22:42.191Z,10.13
2023-02-15T00:27:45.163Z,11.20
2023-02-15T00:32:50.765Z,11.67
2023-02-15T00:38:09.936Z,11.50
2023-02-15T00:43:12.781Z,11.67
2023-02-15T00:48:20.213Z,11.77
2023-02-15T00:53:24.105Z,9.83
2023-02-15T00:58:27.128Z,10.13
2023-02-15T01:03:47.513Z,11.10
2023-02-15T01:08:50.607Z,11.83
2023-02-15T01:13:55.880Z,13.30
2023-02-15T01:19:00.094Z,10.80
2023-02-15T01:24:02.958Z,11.23
2023-02-15T01:29:21.938Z,12.37
2023-02-15T01:34:26.196Z,11.20
2023-02-15T01:39:29.188Z,10.90
2023-02-15T01:44:50.542Z,11.43
2023-02-15T01:50:02.687Z,13.40
2023-02-15T01:55:07.950Z,12.67
2023-02-15T02:00:12.037Z,13.37
2023-02-15T02:05:19.296Z,13.53
2023-02-15T02:10:24.479Z,12.17
2023-02-15T02:15:35.032Z,12.70
2023-02-15T02:21:09.937Z,11.37
2023-02-15T02:26:40.210Z,11.30
2023-02-15T02:31:55.490Z,12.13
2023-02-15T02:37:04.495Z,11.80
2023-02-15T02:42:11.806Z,13.03
2023-02-15T02:47:19.362Z,11.63
2023-02-15T02:52:41.108Z,12.47
2023-02-15T02:57:48.810Z,11.73
2023-02-15T03:03:15.962Z,14.03
2023-02-15T03:08:22.901Z,12.77
2023-02-15T03:13:26.430Z,12.70
2023-02-15T03:18:32.947Z,12.00
2023-02-15T03:23:38.853Z,12.53
2023-02-15T03:28:57.229Z,12.97
2023-02-15T03:34:01.667Z,13.47
2023-02-15T03:39:12.074Z,11.63
2023-02-15T03:44:20.490Z,10.07
2023-02-15T03:49:26.334Z,12.00
2023-02-15T03:54:44.822Z,12.03
2023-02-15T04:00:05.222Z,10.83
2023-02-15T04:05:14.452Z,11.13
2023-02-15T04:10:36.296Z,12.37
2023-02-15T04:15:56.962Z,12.87
2023-02-15T04:21:17.308Z,12.37
2023-02-15T04:26:21.657Z,11.70
2023-02-15T04:31:24.826Z,14.10
2023-02-15T04:36:27.753Z,12.70
2023-02-15T04:41:31.980Z,11.77
2023-02-15T04:46:35.968Z,11.90
2023-02-15T04:51:38.978Z,13.33
2023-02-15T04:56:44.130Z,14.07
2023-02-15T05:01:47.017Z,13.17
2023-02-15T05:06:49.902Z,14.57
2023-02-15T05:11:54.195Z,13.90
2023-02-15T05:16:57.094Z,14.77
2023-02-15T05:22:00.357Z,14.57
2023-02-15T05:27:21.929Z,14.77
2023-02-15T05:32:26.168Z,14.20
2023-02-15T05:37:30.607Z,15.97
2023-02-15T05:42:34.961Z,16.50
2023-02-15T05:47:37.824Z,17.73
2023-02-15T05:52:40.669Z,16.30
2023-02-15T05:57:44.972Z,16.60
2023-02-15T06:02:48.032Z,14.30
2023-02-15T06:07:50.941Z,15.33
2023-02-15T06:12:55.185Z,17.13
2023-02-15T06:17:57.998Z,14.83
2023-02-15T06:23:00.952Z,16.93
2023-02-15T06:28:07.738Z,17.70
2023-02-15T06:33:10.539Z,14.80
2023-02-15T06:38:13.365Z,17.00
2023-02-15T06:43:17.575Z,15.50
2023-02-15T06:48:20.428Z,16.93
2023-02-15T06:53:43.829Z,17.67
2023-02-15T06:58:50.380Z,15.30
2023-02-15T07:03:55.396Z,15.17
2023-02-15T07:08:58.311Z,14.87
2023-02-15T07:14:02.651Z,15.10
2023-02-15T07:19:20.722Z,14.77
2023-02-15T07:24:23.703Z,15.80
2023-02-15T07:29:27.988Z,16.30
2023-02-15T07:34:30.811Z,16.83
2023-02-15T07:39:33.912Z,16.83
2023-02-15T07:44:56.123Z,16.70
2023-02-15T07:49:59.050Z,15.47
2023-02-15T07:55:02.077Z,18.00
2023-02-15T08:00:07.712Z,18.67
2023-02-15T08:05:15.368Z,16.70
2023-02-15T08:10:47.024Z,16.90
2023-02-15T08:15:52.006Z,19.00
2023-02-15T08:20:55.133Z,18.47
2023-02-15T08:26:01.960Z,18.57
2023-02-15T08:31:10.728Z,16.07
2023-02-15T08:36:15.706Z,18.53
2023-02-15T08:41:20.020Z,19.70
2023-02-15T08:46:25.213Z,19.27
2023-02-15T08:51:29.796Z,19.43
2023-02-15T08:56:36.580Z,21.67
2023-02-15T09:01:46.767Z,23.50
2023-02-15T09:06:50.750Z,22.80
2023-02-15T09:11:58.879Z,22.37
2023-02-15T09:17:03.680Z,21.87
2023-02-15T09:22:06.628Z,22.23
2023-02-15T09:27:22.815Z,21.97
2023-02-15T09:32:27.183Z,22.57
2023-02-15T09:37:30.082Z,22.80
2023-02-15T09:42:43.207Z,21.90
2023-02-15T09:48:16.646Z,22.57
2023-02-15T09:53:31.703Z,20.60
2023-02-15T09:58:41.258Z,22.97
2023-02-15T10:03:59.344Z,21.50
2023-02-15T10:09:13.299Z,20.30
2023-02-15T10:14:42.819Z,21.07
2023-02-15T10:19:53.562Z,18.87
2023-02-15T10:25:13.055Z,20.50
2023-02-15T10:30:17.055Z,22.10
2023-02-15T10:35:47.785Z,21.60
2023-02-15T10:41:00.903Z,22.83
2023-02-15T10:46:11.428Z,20.20
2023-02-15T10:51:18.612Z,20.00
2023-02-15T10:56:24.217Z,19.70
2023-02-15T11:01:32.900Z,21.27
2023-02-15T11:06:38.738Z,19.40
2023-02-15T11:11:44.923Z,20.80
2023-02-15T11:16:54.140Z,18.53
2023-02-15T11:22:02.153Z,19.03
2023-02-15T11:27:06.959Z,18.30
2023-02-15T11:32:16.737Z,20.20
2023-02-15T11:37:26.536Z,20.00
2023-02-15T11:42:30.527Z,19.80
2023-02-15T11:47:33.569Z,20.87
2023-02-15T11:52:39.208Z,20.10
2023-02-15T11:57:45.087Z,19.73
2023-02-15T12:02:52.813Z,17.97
2023-02-15T12:08:04.856Z,18.60
2023-02-15T12:13:12.855Z,20.80
2023-02-15T12:18:36.960Z,19.03
2023-02-15T12:23:48.069Z,19.03
2023-02-15T12:28:55.712Z,16.60
2023-02-15T12:33:59.909Z,15.67
2023-02-15T12:39:21.823Z,18.23
2023-02-15T12:44:27.572Z,17.37
2023-02-15T12:49:31.564Z,14.67
2023-02-15T12:54:39.599Z,17.40
2023-02-15T12:59:50.430Z,17.83
2023-02-15T13:04:53.653Z,18.67
2023-02-15T13:09:59.478Z,17.60
2023-02-15T13:15:03.418Z,17.80
2023-02-15T13:20:19.019Z,19.20
2023-02-15T13:25:24.739Z,18.57
2023-02-15T13:30:32.202Z,17.77
2023-02-15T13:35:42.945Z,18.57
2023-02-15T13:40:51.301Z,17.47
2023-02-15T13:46:03.632Z,20.93
2023-02-15T13:51:13.748Z,17.80
2023-02-15T13:56:22.871Z,18.67
2023-02-15T14:01:32.032Z,20.73
2023-02-15T14:07:00.772Z,17.47
2023-02-15T14:12:22.580Z,19.17
2023-02-15T14:17:42.355Z,19.83
2023-02-15T14:22:48.971Z,20.03
2023-02-15T14:27:59.751Z,19.83
2023-02-15T14:33:08.184Z,20.30
2023-02-15T14:38:17.108Z,21.07
2023-02-15T14:43:29.926Z,21.23
2023-02-15T14:48:36.049Z,21.53
2023-02-15T14:53:44.965Z,21.67
2023-02-15T14:59:00.772Z,19.93
2023-02-15T15:04:06.866Z,21.30
2023-02-15T15:09:14.272Z,21.03
2023-02-15T15:14:41.223Z,20.93
2023-02-15T15:20:14.374Z,22.07
2023-02-15T15:25:45.689Z,21.57
2023-02-15T15:30:53.509Z,21.10
2023-02-15T15:36:16.641Z,20.40
2023-02-15T15:41:21.012Z,20.47
2023-02-15T15:46:38.417Z,20.93
2023-02-15T15:51:43.509Z,20.87
2023-02-15T15:56:50.806Z,20.10
2023-02-15T16:01:55.199Z,19.97
2023-02-15T16:06:58.805Z,19.50
2023-02-15T16:12:03.010Z,20.83
2023-02-15T16:17:15.188Z,17.83
2023-02-15T16:22:21.443Z,19.03
2023-02-15T16:27:38.655Z,18.20
2023-02-15T16:39:11.836Z,17.93
2023-02-15T16:44:18.414Z,18.03
2023-02-15T16:49:23.468Z,19.03
2023-02-15T16:54:29.212Z,19.63
2023-02-15T16:59:48.593Z,17.97
2023-02-15T17:05:04.862Z,17.60
2023-02-15T17:10:29.264Z,16.90
2023-02-15T17:15:34.644Z,17.67
2023-02-15T17:20:44.554Z,18.53
2023-02-15T17:25:49.507Z,17.37
2023-02-15T17:30:53.431Z,18.33
2023-02-15T17:36:09.677Z,20.13
2023-02-15T17:41:15.186Z,17.50
2023-02-15T17:46:19.671Z,18.00
2023-02-15T17:51:23.405Z,17.97
2023-02-15T17:56:27.684Z,16.93
2023-02-15T18:01:54.651Z,19.43
2023-02-15T18:07:15.326Z,17.20
2023-02-15T18:12:23.074Z,19.23
2023-02-15T18:17:29.941Z,16.70
2023-02-15T18:22:33.102Z,17.53
2023-02-15T18:27:37.430Z,18.50
2023-02-15T18:32:41.343Z,16.70
2023-02-15T18:37:44.344Z,19.63
2023-02-15T18:42:49.806Z,18.67
2023-02-15T18:47:53.128Z,19.17
2023-02-15T18:52:56.009Z,17.00
2023-02-15T18:58:01.116Z,18.67
2023-02-15T19:03:04.768Z,21.07
2023-02-15T19:08:16.805Z,21.03
2023-02-15T19:13:21.046Z,20.07
2023-02-15T19:18:23.868Z,19.87
2023-02-15T19:23:26.967Z,18.30
2023-02-15T19:28:33.584Z,18.00
2023-02-15T19:33:36.826Z,18.60
2023-02-15T19:38:41.027Z,18.23
2023-02-15T19:43:53.085Z,17.63
2023-02-15T19:48:56.096Z,16.70
2023-02-15T19:53:58.982Z,16.20
2023-02-15T19:59:03.172Z,17.53
2023-02-15T20:04:06.192Z,17.50
2023-02-15T20:09:10.162Z,15.63
2023-02-15T20:14:15.309Z,16.40
2023-02-15T20:19:18.264Z,16.60
2023-02-15T20:24:22.524Z,16.13
2023-02-15T20:29:26.800Z,15.60
2023-02-15T20:34:42.268Z,15.93
2023-02-15T20:39:45.048Z,17.13
2023-02-15T20:44:50.436Z,17.37
2023-02-15T20:49:54.232Z,16.17
2023-02-15T20:54:57.103Z,15.87
2023-02-15T21:00:23.936Z,16.83
2023-02-15T21:05:28.149Z,16.40
2023-02-15T21:10:33.229Z,18.30
2023-02-15T21:15:39.830Z,17.63
2023-02-15T21:20:45.821Z,16.97
2023-02-15T21:25:57.310Z,18.00
2023-02-15T21:31:01.654Z,16.10
2023-02-15T21:36:05.250Z,16.17
2023-02-15T21:41:22.034Z,17.63
2023-02-15T21:46:45.603Z,18.60
2023-02-15T21:52:09.656Z,17.77
2023-02-15T21:57:14.973Z,17.40
2023-02-15T22:02:30.512Z,16.67
2023-02-15T22:07:33.380Z,18.57
2023-02-15T22:12:36.424Z,16.23
2023-02-15T22:17:40.685Z,17.80
2023-02-15T22:22:43.610Z,17.07
2023-02-15T22:27:47.859Z,17.90
2023-02-15T22:32:54.133Z,16.97
2023-02-15T22:37:58.294Z,16.33
2023-02-15T22:43:03.036Z,15.70
2023-02-15T22:48:07.433Z,16.77
2023-02-15T22:53:10.600Z,16.47
2023-02-15T22:58:18.124Z,16.93
2023-02-15T23:03:24.095Z,17.33
2023-02-15T23:08:26.884Z,16.57
2023-02-15T23:13:33.053Z,15.63
2023-02-15T23:18:39.237Z,17.73
2023-02-15T23:23:43.534Z,17.50
2023-02-15T23:28:46.877Z,19.43
2023-02-15T23:33:52.536Z,18.33
2023-02-15T23:38:56.633Z,17.67
2023-02-15T23:44:12.290Z,16.43
2023-02-15T23:49:19.453Z,17.67
2023-02-15T23:54:25.515Z,17.47
2023-02-15T23:59:30.169Z,17.13
